Espumoso, Brazil
Current Conditions -  °F | °C
As of 10:00 PM on Tuesday 21 Oct 2014 (Local Time) from SBPF Reporting Station
Clear Clear  
Wind Chill: 68°   Ceiling: Unl
Heat Index: 68°   Visibility: 6mi
Dew Point: 55°   Wind: 6mph
Humidity: 64%   Direction: 120°ESE
Pressure: 30.15"   Gusts: NA
Location:  28.72°S, 52.85°W
Report Text: SBPF 220000Z 12005KT CAVOK 20/13 Q1021
Loading
Personal Weather Stations






























Interactive Weather Map
Tropical Storm Tracking
New forecast layout! Learn more

10-Day Weather Forecast

Advertisements
Track Severe Weather on mobile